createdAt,value
2018-02-09T00:00:37.458Z,-2.20
2018-02-09T00:03:05.728Z,-2.20
2018-02-09T00:05:33.998Z,-2.20
2018-02-09T00:08:02.286Z,-2.20
2018-02-09T00:10:29.786Z,-2.20
2018-02-09T00:12:57.318Z,-2.30
2018-02-09T00:15:24.822Z,-2.30
2018-02-09T00:17:52.346Z,-2.30
2018-02-09T00:20:19.842Z,-2.40
2018-02-09T00:22:52.766Z,-2.50
2018-02-09T00:25:20.268Z,-2.50
2018-02-09T00:27:47.778Z,-2.50
2018-02-09T00:30:16.074Z,-2.60
2018-02-09T00:32:43.574Z,-2.60
2018-02-09T00:35:11.108Z,-2.50
2018-02-09T00:37:38.605Z,-2.60
2018-02-09T00:40:06.183Z,-2.60
2018-02-09T00:42:33.658Z,-2.60
2018-02-09T00:45:01.190Z,-2.70
2018-02-09T00:47:29.462Z,-2.70
2018-02-09T00:49:56.964Z,-2.70
2018-02-09T00:52:24.494Z,-2.70
2018-02-09T00:54:52.762Z,-2.70
2018-02-09T00:57:21.049Z,-2.70
2018-02-09T00:59:49.330Z,-2.70
2018-02-09T01:02:16.857Z,-2.70
2018-02-09T01:04:44.364Z,-2.70
2018-02-09T01:07:11.890Z,-2.70
2018-02-09T01:09:40.162Z,-2.80
2018-02-09T01:12:08.435Z,-2.80
2018-02-09T01:14:35.961Z,-2.80
2018-02-09T01:17:03.463Z,-2.80
2018-02-09T01:19:31.763Z,-2.90
2018-02-09T01:21:59.274Z,-2.90
2018-02-09T01:24:26.798Z,-2.90
2018-02-09T01:26:54.306Z,-2.90
2018-02-09T01:29:21.834Z,-2.90
2018-02-09T01:31:49.338Z,-2.90
2018-02-09T01:34:17.626Z,-2.90
2018-02-09T01:36:45.126Z,-3.00
2018-02-09T01:39:12.626Z,-2.90
2018-02-09T01:41:40.178Z,-3.00
2018-02-09T01:44:08.442Z,-2.90
2018-02-09T01:46:35.971Z,-3.00
2018-02-09T01:49:03.474Z,-3.00
2018-02-09T01:51:31.766Z,-3.00
2018-02-09T01:54:00.034Z,-3.00
2018-02-09T01:56:28.336Z,-3.00
2018-02-09T01:58:55.834Z,-3.00
2018-02-09T02:01:23.358Z,-3.00
2018-02-09T02:03:50.870Z,-3.00
2018-02-09T02:06:18.378Z,-3.10
2018-02-09T02:08:45.905Z,-3.10
2018-02-09T02:11:14.182Z,-3.10
2018-02-09T02:13:42.477Z,-3.10
2018-02-09T02:16:09.986Z,-3.10
2018-02-09T02:18:37.510Z,-3.10
2018-02-09T02:21:05.010Z,-3.10
2018-02-09T02:23:32.515Z,-3.10
2018-02-09T02:26:00.038Z,-3.10
2018-02-09T02:28:28.314Z,-3.10
2018-02-09T02:30:56.610Z,-3.20
2018-02-09T02:33:24.874Z,-3.20
2018-02-09T02:35:53.172Z,-3.30
2018-02-09T02:38:20.682Z,-3.30
2018-02-09T02:40:48.186Z,-3.30
2018-02-09T02:43:15.710Z,-3.30
2018-02-09T02:45:43.214Z,-3.30
2018-02-09T02:48:10.763Z,-3.30
2018-02-09T02:50:38.274Z,-3.30
2018-02-09T02:53:05.804Z,-3.30
2018-02-09T02:55:33.302Z,-3.30
2018-02-09T02:58:00.803Z,-3.30
2018-02-09T03:00:28.326Z,-3.20
2018-02-09T03:02:55.831Z,-3.20
2018-02-09T03:05:23.359Z,-3.20
2018-02-09T03:07:51.627Z,-3.10
2018-02-09T03:10:19.922Z,-3.10
2018-02-09T03:12:47.427Z,-3.10
2018-02-09T03:15:14.959Z,-3.00
2018-02-09T03:17:42.458Z,-3.00
2018-02-09T03:20:09.958Z,-2.90
2018-02-09T03:22:37.485Z,-2.90
2018-02-09T03:25:04.982Z,-2.80
2018-02-09T03:27:32.510Z,-2.80
2018-02-09T03:30:00.780Z,-2.70
2018-02-09T03:32:28.305Z,-2.70
2018-02-09T03:34:55.810Z,-2.60
2018-02-09T03:37:24.086Z,-2.60
2018-02-09T03:39:52.378Z,-2.60
2018-02-09T03:42:19.878Z,-2.60
2018-02-09T03:44:47.403Z,-2.50
2018-02-09T03:47:14.910Z,-2.50
2018-02-09T03:49:42.438Z,-2.50
2018-02-09T03:52:09.942Z,-2.40
2018-02-09T03:54:37.445Z,-2.40
2018-02-09T03:57:04.981Z,-2.40
2018-02-09T03:59:33.250Z,-2.40
2018-02-09T04:02:01.538Z,-2.40
2018-02-09T04:04:29.810Z,-2.40
2018-02-09T04:06:58.106Z,-2.40
2018-02-09T04:09:25.609Z,-2.40
2018-02-09T04:11:53.106Z,-2.40
2018-02-09T04:14:21.402Z,-2.30
2018-02-09T04:16:48.902Z,-2.40
2018-02-09T04:19:16.430Z,-2.30
2018-02-09T04:21:43.934Z,-2.30
2018-02-09T04:24:11.458Z,-2.30
2018-02-09T04:26:38.953Z,-2.30
2018-02-09T04:29:06.450Z,-2.40
2018-02-09T04:31:33.974Z,-2.30
2018-02-09T04:34:02.238Z,-2.30
2018-02-09T04:36:29.760Z,-2.40
2018-02-09T04:38:57.262Z,-2.30
2018-02-09T04:41:24.786Z,-2.30
2018-02-09T04:43:52.282Z,-2.30
2018-02-09T04:46:19.783Z,-2.30
2018-02-09T04:48:47.310Z,-2.20
2018-02-09T04:51:15.671Z,-2.20
2018-02-09T04:53:43.198Z,-2.20
2018-02-09T04:56:10.701Z,-2.20
2018-02-09T04:58:38.995Z,-2.20
2018-02-09T05:01:06.498Z,-2.20
2018-02-09T05:03:34.003Z,-2.10
2018-02-09T05:06:02.294Z,-2.10
2018-02-09T05:08:29.802Z,-2.10
2018-02-09T05:10:57.330Z,-2.10
2018-02-09T05:13:24.831Z,-2.10
2018-02-09T05:15:52.358Z,-2.10
2018-02-09T05:18:19.858Z,-2.10
2018-02-09T05:20:47.353Z,-2.10
2018-02-09T05:23:14.874Z,-2.00
2018-02-09T05:25:42.374Z,-2.00
2018-02-09T05:28:09.895Z,-2.00
2018-02-09T05:30:38.158Z,-2.00
2018-02-09T05:33:05.682Z,-2.00
2018-02-09T05:35:33.177Z,-2.00
2018-02-09T05:38:00.682Z,-2.00
2018-02-09T05:40:28.210Z,-1.90
2018-02-09T05:42:56.478Z,-1.90
2018-02-09T05:45:23.998Z,-1.90
2018-02-09T05:47:51.506Z,-1.90
2018-02-09T05:50:19.803Z,-1.90
2018-02-09T05:52:47.301Z,-1.90
2018-02-09T05:55:14.806Z,-1.90
2018-02-09T05:57:43.099Z,-1.90
2018-02-09T06:00:10.602Z,-1.90
2018-02-09T06:02:38.125Z,-1.80
2018-02-09T06:05:05.622Z,-1.80
2018-02-09T06:07:33.150Z,-1.80
2018-02-09T06:10:00.649Z,-1.80
2018-02-09T06:12:28.150Z,-1.80
2018-02-09T06:14:55.670Z,-1.80
2018-02-09T06:17:23.170Z,-1.80
2018-02-09T06:19:50.690Z,-1.80
2018-02-09T06:22:18.961Z,-1.80
2018-02-09T06:24:46.490Z,-1.80
2018-02-09T06:27:13.989Z,-1.80
2018-02-09T06:29:42.866Z,-1.80
2018-02-09T06:32:10.386Z,-1.80
2018-02-09T06:34:37.886Z,-1.80
2018-02-09T06:37:05.410Z,-1.80
2018-02-09T06:39:32.922Z,-1.80
2018-02-09T06:42:01.218Z,-1.80
2018-02-09T06:44:28.723Z,-1.80
2018-02-09T06:46:56.230Z,-1.80
2018-02-09T06:49:23.760Z,-1.80
2018-02-09T06:51:51.270Z,-1.80
2018-02-09T06:54:18.794Z,-1.80
2018-02-09T06:56:47.059Z,-1.80
2018-02-09T06:59:15.354Z,-1.70
2018-02-09T07:01:42.863Z,-1.80
2018-02-09T07:04:10.370Z,-1.70
2018-02-09T07:06:37.898Z,-1.70
2018-02-09T07:09:05.402Z,-1.70
2018-02-09T07:11:32.930Z,-1.60
2018-02-09T07:14:01.198Z,-1.60
2018-02-09T07:16:28.724Z,-1.70
2018-02-09T07:18:56.227Z,-1.60
2018-02-09T07:21:24.494Z,-1.60
2018-02-09T07:23:52.022Z,-1.60
2018-02-09T07:26:19.522Z,-1.50
2018-02-09T07:28:47.822Z,-1.50
2018-02-09T07:31:15.331Z,-1.50
2018-02-09T07:33:42.858Z,-1.50
2018-02-09T07:36:10.362Z,-1.40
2018-02-09T07:38:38.641Z,-1.40
2018-02-09T07:41:06.932Z,-1.40
2018-02-09T07:43:35.198Z,-1.30
2018-02-09T07:46:03.485Z,-1.30
2018-02-09T07:48:31.802Z,-1.20
2018-02-09T07:50:59.314Z,-1.30
2018-02-09T07:53:27.585Z,-1.20
2018-02-09T07:55:55.858Z,-1.20
2018-02-09T07:58:23.393Z,-1.30
2018-02-09T08:00:50.898Z,-1.20
2018-02-09T08:03:18.431Z,-1.10
2018-02-09T08:05:45.938Z,-1.10
2018-02-09T08:08:13.467Z,-1.10
2018-02-09T08:10:41.733Z,-1.10
2018-02-09T08:13:09.998Z,-1.00
2018-02-09T08:15:37.522Z,-1.10
2018-02-09T08:18:05.026Z,-1.00
2018-02-09T08:20:33.322Z,-0.90
2018-02-09T08:23:00.831Z,-0.90
2018-02-09T08:25:28.361Z,-1.00
2018-02-09T08:27:55.867Z,-1.00
2018-02-09T08:30:24.138Z,-1.00
2018-02-09T08:32:51.670Z,-1.00
2018-02-09T08:35:19.174Z,-1.00
2018-02-09T08:37:47.466Z,-0.90
2018-02-09T08:40:14.966Z,-0.90
2018-02-09T08:42:42.490Z,-0.80
2018-02-09T08:45:09.990Z,-0.80
2018-02-09T08:47:37.492Z,-0.80
2018-02-09T08:50:05.777Z,-0.70
2018-02-09T08:52:33.278Z,-0.70
2018-02-09T08:55:00.807Z,-0.60
2018-02-09T08:57:28.314Z,-0.60
2018-02-09T08:59:56.614Z,-0.50
2018-02-09T09:02:24.883Z,-0.50
2018-02-09T09:04:53.160Z,-0.50
2018-02-09T09:07:21.446Z,-0.50
2018-02-09T09:09:49.718Z,-0.50
2018-02-09T09:12:18.010Z,-0.50
2018-02-09T09:14:45.524Z,-0.40
2018-02-09T09:17:13.058Z,-0.40
2018-02-09T09:19:40.562Z,-0.40
2018-02-09T09:22:08.062Z,-0.30
2018-02-09T09:24:35.582Z,-0.30
2018-02-09T09:27:03.850Z,-0.20
2018-02-09T09:29:31.374Z,-0.30
2018-02-09T09:31:58.878Z,-0.20
2018-02-09T09:34:27.175Z,-0.20
2018-02-09T09:36:54.688Z,-0.20
2018-02-09T09:39:22.196Z,-0.20
2018-02-09T09:41:49.734Z,-0.10
2018-02-09T09:44:18.002Z,-0.10
2018-02-09T09:46:45.534Z,-0.10
2018-02-09T09:49:13.038Z,-0.10
2018-02-09T09:51:41.330Z,0.00
2018-02-09T09:54:08.829Z,-0.10
2018-02-09T09:56:36.327Z,0.00
2018-02-09T09:59:04.618Z,0.10
2018-02-09T10:01:32.122Z,0.10
2018-02-09T10:03:59.642Z,0.20
2018-02-09T10:06:27.142Z,0.20
2018-02-09T10:08:54.662Z,0.20
2018-02-09T10:11:22.162Z,0.30
2018-02-09T10:13:49.658Z,0.40
2018-02-09T10:16:17.954Z,0.50
2018-02-09T10:18:45.454Z,0.50
2018-02-09T10:21:12.974Z,0.40
2018-02-09T10:23:40.478Z,0.50
2018-02-09T10:26:07.998Z,0.50
2018-02-09T10:28:35.498Z,0.50
2018-02-09T10:31:02.999Z,0.50
2018-02-09T10:33:30.521Z,0.60
2018-02-09T10:35:58.022Z,0.60
2018-02-09T10:38:25.546Z,0.70
2018-02-09T10:40:53.814Z,0.70
2018-02-09T10:43:21.318Z,0.70
2018-02-09T10:45:48.842Z,0.80
2018-02-09T10:48:17.106Z,0.80
2018-02-09T10:50:44.626Z,0.70
2018-02-09T10:53:12.129Z,0.80
2018-02-09T10:55:39.634Z,0.80
2018-02-09T10:58:07.158Z,0.80
2018-02-09T11:00:41.255Z,1.00
2018-02-09T11:03:08.786Z,0.90
2018-02-09T11:05:36.281Z,1.00
2018-02-09T11:08:04.547Z,1.10
2018-02-09T11:10:33.002Z,1.10
2018-02-09T11:13:00.502Z,1.20
2018-02-09T11:15:28.795Z,1.20
2018-02-09T11:17:56.290Z,1.20
2018-02-09T11:20:23.786Z,1.20
2018-02-09T11:22:52.074Z,1.10
2018-02-09T11:25:20.342Z,1.10
2018-02-09T11:27:48.626Z,1.20
2018-02-09T11:30:16.886Z,1.20
2018-02-09T11:32:44.414Z,1.20
2018-02-09T11:35:11.914Z,1.20
2018-02-09T11:37:40.177Z,1.20
2018-02-09T11:40:07.696Z,1.20
2018-02-09T11:42:35.212Z,1.10
2018-02-09T11:45:03.504Z,1.10
2018-02-09T11:47:30.998Z,1.10
2018-02-09T11:49:58.525Z,1.00
2018-02-09T11:52:26.039Z,0.90
2018-02-09T11:54:53.542Z,1.00
2018-02-09T11:57:21.062Z,1.00
2018-02-09T11:59:48.563Z,1.00
2018-02-09T12:02:16.086Z,0.90
2018-02-09T12:04:44.350Z,0.90
2018-02-09T12:07:12.641Z,0.90
2018-02-09T12:09:40.902Z,1.00
2018-02-09T12:12:08.406Z,1.00
2018-02-09T12:14:35.922Z,1.10
2018-02-09T12:17:03.422Z,1.10
2018-02-09T12:19:30.946Z,1.00
2018-02-09T12:21:59.215Z,1.00
2018-02-09T12:24:26.745Z,1.00
2018-02-09T12:26:54.251Z,1.10
2018-02-09T12:29:22.514Z,1.10
2018-02-09T12:31:50.034Z,1.10
2018-02-09T12:34:17.586Z,1.10
2018-02-09T12:36:45.106Z,1.10
2018-02-09T12:39:13.366Z,1.10
2018-02-09T12:41:40.895Z,1.20
2018-02-09T12:44:08.390Z,1.20
2018-02-09T12:46:36.654Z,1.20
2018-02-09T12:49:04.175Z,1.20
2018-02-09T12:51:31.673Z,1.30
2018-02-09T12:53:59.190Z,1.30
2018-02-09T12:56:26.686Z,1.30
2018-02-09T12:58:54.206Z,1.40
2018-02-09T13:01:21.706Z,1.30
2018-02-09T13:03:49.206Z,1.30
2018-02-09T13:06:16.780Z,1.20
2018-02-09T13:08:45.015Z,1.20
2018-02-09T13:11:13.357Z,1.20
2018-02-09T13:13:40.821Z,1.20
2018-02-09T13:16:08.342Z,1.20
2018-02-09T13:18:46.856Z,1.20
2018-02-09T13:21:14.391Z,1.20
2018-02-09T13:23:53.765Z,1.20
2018-02-09T13:26:21.292Z,1.20
2018-02-09T13:28:59.998Z,1.20
2018-02-09T13:31:27.565Z,1.20
2018-02-09T13:33:55.829Z,1.20
2018-02-09T13:36:36.105Z,1.20
2018-02-09T13:39:03.602Z,1.20
2018-02-09T13:41:31.099Z,1.20
2018-02-09T13:43:58.626Z,1.20
2018-02-09T13:46:26.130Z,1.20
2018-02-09T13:48:54.530Z,1.40
2018-02-09T13:51:22.026Z,1.30
2018-02-09T13:53:49.522Z,1.40
2018-02-09T13:56:17.810Z,1.40
2018-02-09T13:58:45.307Z,1.40
2018-02-09T14:01:12.826Z,1.40
2018-02-09T14:03:41.090Z,1.30
2018-02-09T14:06:09.358Z,1.30
2018-02-09T14:08:37.650Z,1.40
2018-02-09T14:11:05.910Z,1.40
2018-02-09T14:13:33.430Z,1.30
2018-02-09T14:16:00.934Z,1.40
2018-02-09T14:18:29.195Z,1.40
2018-02-09T14:20:57.498Z,1.40
2018-02-09T14:23:25.762Z,1.40
2018-02-09T14:25:54.047Z,1.50
2018-02-09T14:28:22.315Z,1.50
2018-02-09T14:30:50.602Z,1.50
2018-02-09T14:33:18.890Z,1.50
2018-02-09T14:35:46.394Z,1.40
2018-02-09T14:38:13.918Z,1.50
2018-02-09T14:40:41.418Z,1.50
2018-02-09T14:43:08.943Z,1.50
2018-02-09T14:45:36.450Z,1.50
2018-02-09T14:48:03.970Z,1.60
2018-02-09T14:50:31.482Z,1.60
2018-02-09T14:52:59.742Z,1.60
2018-02-09T14:55:27.262Z,1.50
2018-02-09T14:57:54.758Z,1.50
2018-02-09T15:00:22.278Z,1.50
2018-02-09T15:02:49.774Z,1.40
2018-02-09T15:05:17.275Z,1.40
2018-02-09T15:07:44.799Z,1.40
2018-02-09T15:10:13.062Z,1.50
2018-02-09T15:12:40.582Z,1.50
2018-02-09T15:15:08.081Z,1.50
2018-02-09T15:17:35.586Z,1.50
2018-02-09T15:20:03.106Z,1.50
2018-02-09T15:22:30.611Z,1.50
2018-02-09T15:24:58.130Z,1.60
2018-02-09T15:27:26.392Z,1.60
2018-02-09T15:29:53.894Z,1.60
2018-02-09T15:32:21.427Z,1.60
2018-02-09T15:34:49.694Z,1.50
2018-02-09T15:37:17.995Z,1.60
2018-02-09T15:39:45.498Z,1.60
2018-02-09T15:42:13.787Z,1.50
2018-02-09T15:44:41.314Z,1.50
2018-02-09T15:47:08.818Z,1.50
2018-02-09T15:49:36.338Z,1.50
2018-02-09T15:52:03.870Z,1.40
2018-02-09T15:54:31.385Z,1.40
2018-02-09T15:56:58.886Z,1.50
2018-02-09T15:59:26.407Z,1.50
2018-02-09T16:01:53.906Z,1.50
2018-02-09T16:04:21.406Z,1.50
2018-02-09T16:06:48.930Z,1.50
2018-02-09T16:09:16.429Z,1.50
2018-02-09T16:11:43.951Z,1.50
2018-02-09T16:14:11.446Z,1.60
2018-02-09T16:16:38.947Z,1.60
2018-02-09T16:19:06.474Z,1.60
2018-02-09T16:21:33.975Z,1.50
2018-02-09T16:24:01.502Z,1.50
2018-02-09T16:26:29.768Z,1.60
2018-02-09T16:28:57.270Z,1.60
2018-02-09T16:31:24.799Z,1.50
2018-02-09T16:33:53.061Z,1.50
2018-02-09T16:36:20.586Z,1.50
2018-02-09T16:38:48.091Z,1.50
2018-02-09T16:41:16.361Z,1.50
2018-02-09T16:43:44.651Z,1.50
2018-02-09T16:46:12.922Z,1.50
2018-02-09T16:48:41.206Z,1.50
2018-02-09T16:51:09.474Z,1.50
2018-02-09T16:53:37.761Z,1.40
2018-02-09T16:56:06.046Z,1.30
2018-02-09T16:58:33.562Z,1.30
2018-02-09T17:01:01.081Z,1.40
2018-02-09T17:03:28.574Z,1.30
2018-02-09T17:05:56.095Z,1.30
2018-02-09T17:08:23.589Z,1.40
2018-02-09T17:10:51.082Z,1.40
2018-02-09T17:13:19.361Z,1.40
2018-02-09T17:15:47.628Z,1.40
2018-02-09T17:18:15.913Z,1.40
2018-02-09T17:20:44.178Z,1.30
2018-02-09T17:23:12.461Z,1.30
2018-02-09T17:25:40.765Z,1.30
2018-02-09T17:28:09.006Z,1.30
2018-02-09T17:30:37.294Z,1.30
2018-02-09T17:33:05.555Z,1.30
2018-02-09T17:35:33.842Z,1.30
2018-02-09T17:38:02.102Z,1.40
2018-02-09T17:40:29.626Z,1.30
2018-02-09T17:42:57.117Z,1.40
2018-02-09T17:45:24.619Z,1.40
2018-02-09T17:47:52.139Z,1.40
2018-02-09T17:50:19.637Z,1.40
2018-02-09T17:52:47.167Z,1.30
2018-02-09T17:55:15.433Z,1.30
2018-02-09T17:57:42.954Z,1.30
2018-02-09T18:00:10.454Z,1.30
2018-02-09T18:02:38.718Z,1.30
2018-02-09T18:05:06.269Z,1.20
2018-02-09T18:07:33.762Z,1.30
2018-02-09T18:10:02.047Z,1.30
2018-02-09T18:12:29.545Z,1.20
2018-02-09T18:14:57.072Z,1.30
2018-02-09T18:17:28.215Z,1.30
2018-02-09T18:19:55.718Z,1.20
2018-02-09T18:22:23.246Z,1.20
2018-02-09T18:24:50.742Z,1.20
2018-02-09T18:27:18.261Z,1.20
2018-02-09T18:29:45.763Z,1.20
2018-02-09T18:32:13.282Z,1.20
2018-02-09T18:34:40.778Z,1.30
2018-02-09T18:37:08.277Z,1.30
2018-02-09T18:39:35.798Z,1.30
2018-02-09T18:42:03.302Z,1.30
2018-02-09T18:44:30.823Z,1.30
2018-02-09T18:46:58.322Z,1.30
2018-02-09T18:49:25.842Z,1.30
2018-02-09T18:51:53.338Z,1.30
2018-02-09T18:54:20.834Z,1.30
2018-02-09T18:56:48.354Z,1.30
2018-02-09T18:59:15.852Z,1.30
2018-02-09T19:01:43.374Z,1.30
2018-02-09T19:04:10.878Z,1.30
2018-02-09T19:06:38.378Z,1.30
2018-02-09T19:09:05.898Z,1.30
2018-02-09T19:11:33.404Z,1.30
2018-02-09T19:14:00.938Z,1.30
2018-02-09T19:16:29.198Z,1.40
2018-02-09T19:18:56.698Z,1.30
2018-02-09T19:21:24.222Z,1.40
2018-02-09T19:23:52.491Z,1.50
2018-02-09T19:26:20.016Z,1.50
2018-02-09T19:28:47.518Z,1.50
2018-02-09T19:31:15.785Z,1.50
2018-02-09T19:33:43.306Z,1.50
2018-02-09T19:36:10.803Z,1.60
2018-02-09T19:38:38.325Z,1.60
2018-02-09T19:41:05.824Z,1.60
2018-02-09T19:43:34.092Z,1.70
2018-02-09T19:46:01.622Z,1.60
2018-02-09T19:48:29.118Z,1.70
2018-02-09T19:50:57.402Z,1.70
2018-02-09T19:53:25.662Z,1.70
2018-02-09T19:55:53.158Z,1.70
2018-02-09T19:58:20.678Z,1.60
2018-02-09T20:00:48.179Z,1.60
2018-02-09T20:03:15.706Z,1.70
2018-02-09T20:05:43.974Z,1.80
2018-02-09T20:08:11.471Z,1.80
2018-02-09T20:10:38.998Z,1.80
2018-02-09T20:13:07.262Z,1.80
2018-02-09T20:15:34.818Z,1.80
2018-02-09T20:18:02.310Z,1.80
2018-02-09T20:20:29.806Z,1.80
2018-02-09T20:22:57.326Z,1.90
2018-02-09T20:25:24.821Z,1.80
2018-02-09T20:27:52.342Z,1.80
2018-02-09T20:30:19.846Z,1.80
2018-02-09T20:32:47.368Z,1.80
2018-02-09T20:35:14.879Z,1.80
2018-02-09T20:37:42.379Z,1.80
2018-02-09T20:40:09.898Z,1.90
2018-02-09T20:42:37.430Z,1.90
2018-02-09T20:45:04.938Z,1.90
2018-02-09T20:47:33.204Z,1.90
2018-02-09T20:50:01.498Z,1.90
2018-02-09T20:52:29.757Z,1.90
2018-02-09T20:54:57.254Z,1.90
2018-02-09T20:57:24.782Z,1.90
2018-02-09T20:59:53.046Z,1.90
2018-02-09T21:02:20.570Z,1.90
2018-02-09T21:04:48.066Z,1.90
2018-02-09T21:07:15.590Z,1.90
2018-02-09T21:09:43.093Z,1.90
2018-02-09T21:12:11.353Z,1.90
2018-02-09T21:14:38.878Z,1.90
2018-02-09T21:17:06.383Z,1.90
2018-02-09T21:19:34.666Z,1.90
2018-02-09T21:22:02.935Z,1.90
2018-02-09T21:24:31.221Z,1.80
2018-02-09T21:26:59.484Z,1.80
2018-02-09T21:29:27.789Z,1.80
2018-02-09T21:31:56.066Z,1.80
2018-02-09T21:34:23.561Z,1.80
2018-02-09T21:36:51.106Z,1.80
2018-02-09T21:39:18.607Z,1.80
2018-02-09T21:41:46.130Z,1.80
2018-02-09T21:44:13.633Z,1.90
2018-02-09T21:46:41.894Z,1.80
2018-02-09T21:49:09.418Z,1.80
2018-02-09T21:51:36.918Z,1.80
2018-02-09T21:54:04.438Z,1.80
2018-02-09T21:56:31.934Z,1.80
2018-02-09T21:58:59.432Z,1.80
2018-02-09T22:01:26.955Z,1.80
2018-02-09T22:03:55.218Z,1.80
2018-02-09T22:06:22.747Z,1.80
2018-02-09T22:08:50.255Z,1.80
2018-02-09T22:11:18.527Z,1.80
2018-02-09T22:13:46.819Z,1.80
2018-02-09T22:16:15.085Z,1.80
2018-02-09T22:18:43.370Z,1.80
2018-02-09T22:21:11.633Z,1.80
2018-02-09T22:23:39.902Z,1.80
2018-02-09T22:26:07.422Z,1.80
2018-02-09T22:28:34.922Z,1.80
2018-02-09T22:31:02.442Z,1.80
2018-02-09T22:33:29.938Z,1.80
2018-02-09T22:35:57.442Z,1.80
2018-02-09T22:38:24.962Z,1.80
2018-02-09T22:40:53.240Z,1.80
2018-02-09T22:43:21.534Z,1.80
2018-02-09T22:45:49.030Z,1.80
2018-02-09T22:48:16.530Z,1.80
2018-02-09T22:50:44.818Z,1.80
2018-02-09T22:53:13.087Z,1.80
2018-02-09T22:55:41.370Z,1.80
2018-02-09T22:58:09.629Z,1.80
2018-02-09T23:00:37.147Z,1.80
2018-02-09T23:03:04.666Z,1.80
2018-02-09T23:05:32.931Z,1.80
2018-02-09T23:08:01.265Z,1.80
2018-02-09T23:10:28.738Z,1.80
2018-02-09T23:12:56.274Z,1.80
2018-02-09T23:15:23.793Z,1.80
2018-02-09T23:17:52.061Z,1.70
2018-02-09T23:20:20.345Z,1.70
2018-02-09T23:22:48.606Z,1.70
2018-02-09T23:25:16.126Z,1.70
2018-02-09T23:27:43.630Z,1.70
2018-02-09T23:30:11.902Z,1.70
2018-02-09T23:32:39.427Z,1.70
2018-02-09T23:35:06.930Z,1.70
2018-02-09T23:37:35.223Z,1.80
2018-02-09T23:40:02.740Z,1.80
2018-02-09T23:42:30.266Z,1.80
2018-02-09T23:44:57.766Z,1.80
2018-02-09T23:47:25.267Z,1.80
2018-02-09T23:49:52.786Z,1.80
2018-02-09T23:52:20.281Z,1.70
2018-02-09T23:54:47.801Z,1.70
2018-02-09T23:57:15.298Z,1.80
2018-02-09T23:59:43.383Z,1.70
